createdAt,value
2018-12-22T00:00:45.892Z,9.76
2018-12-22T00:01:45.884Z,9.75
2018-12-22T00:02:45.872Z,9.76
2018-12-22T00:03:45.865Z,9.81
2018-12-22T00:04:45.885Z,9.81
2018-12-22T00:05:45.838Z,9.79
2018-12-22T00:06:45.831Z,9.76
2018-12-22T00:07:45.818Z,9.87
2018-12-22T00:08:45.808Z,9.87
2018-12-22T00:09:45.796Z,9.78
2018-12-22T00:10:45.823Z,9.91
2018-12-22T00:11:45.776Z,9.87
2018-12-22T00:12:45.768Z,9.84
2018-12-22T00:13:45.752Z,9.78
2018-12-22T00:14:45.742Z,9.75
2018-12-22T00:15:45.732Z,9.81
2018-12-22T00:16:45.866Z,9.78
2018-12-22T00:17:45.709Z,9.76
2018-12-22T00:18:45.699Z,9.74
2018-12-22T00:19:45.689Z,9.74
2018-12-22T00:20:45.677Z,9.78
2018-12-22T00:21:45.667Z,9.74
2018-12-22T00:22:45.695Z,9.61
2018-12-22T00:23:45.646Z,9.74
2018-12-22T00:24:45.635Z,9.79
2018-12-22T00:25:45.628Z,9.78
2018-12-22T00:26:45.611Z,9.68
2018-12-22T00:27:45.602Z,9.61
2018-12-22T00:28:45.628Z,9.65
2018-12-22T00:29:45.579Z,9.68
2018-12-22T00:30:45.571Z,9.69
2018-12-22T00:31:45.560Z,9.61
2018-12-22T00:32:45.548Z,9.65
2018-12-22T00:33:45.539Z,9.61
2018-12-22T00:34:45.565Z,9.65
2018-12-22T00:35:45.523Z,9.58
2018-12-22T00:36:45.508Z,9.60
2018-12-22T00:37:45.496Z,9.60
2018-12-22T00:38:45.481Z,9.61
2018-12-22T00:39:45.473Z,9.61
2018-12-22T00:40:45.500Z,9.61
2018-12-22T00:41:45.451Z,9.57
2018-12-22T00:42:45.440Z,9.60
2018-12-22T00:43:45.428Z,9.64
2018-12-22T00:44:45.419Z,9.53
2018-12-22T00:45:45.418Z,9.48
2018-12-22T00:46:45.433Z,9.54
2018-12-22T00:47:45.386Z,9.53
2018-12-22T00:48:45.378Z,9.53
2018-12-22T00:49:45.377Z,9.48
2018-12-22T00:50:45.365Z,9.47
2018-12-22T00:51:45.343Z,9.54
2018-12-22T00:52:45.372Z,9.51
2018-12-22T00:53:45.320Z,9.51
2018-12-22T00:54:45.312Z,9.58
2018-12-22T00:55:45.301Z,9.54
2018-12-22T00:56:45.289Z,9.42
2018-12-22T00:57:45.280Z,9.43
2018-12-22T00:58:45.310Z,9.50
2018-12-22T00:59:45.259Z,9.50
2018-12-22T01:00:45.247Z,9.39
2018-12-22T01:01:45.235Z,9.42
2018-12-22T01:02:45.227Z,9.38
2018-12-22T01:03:45.216Z,9.40
2018-12-22T01:04:45.239Z,9.31
2018-12-22T01:05:45.195Z,9.42
2018-12-22T01:06:45.184Z,9.33
2018-12-22T01:07:45.172Z,9.35
2018-12-22T01:08:45.162Z,9.33
2018-12-22T01:09:45.151Z,9.39
2018-12-22T01:10:45.177Z,9.31
2018-12-22T01:11:45.129Z,9.35
2018-12-22T01:12:45.118Z,9.35
2018-12-22T01:13:45.108Z,9.35
2018-12-22T01:14:45.100Z,9.28
2018-12-22T01:15:45.086Z,9.39
2018-12-22T01:16:45.113Z,9.36
2018-12-22T01:17:45.069Z,9.40
2018-12-22T01:18:45.054Z,9.46
2018-12-22T01:19:45.045Z,9.42
2018-12-22T01:20:45.035Z,9.42
2018-12-22T01:21:45.022Z,9.35
2018-12-22T01:22:45.048Z,9.43
2018-12-22T01:23:45.001Z,9.38
2018-12-22T01:24:44.990Z,9.42
2018-12-22T01:25:44.985Z,9.40
2018-12-22T01:26:44.968Z,9.47
2018-12-22T01:27:44.958Z,9.38
2018-12-22T01:28:44.983Z,9.53
2018-12-22T01:29:44.935Z,9.48
2018-12-22T01:30:44.924Z,9.43
2018-12-22T01:31:44.913Z,9.54
2018-12-22T01:32:44.904Z,9.54
2018-12-22T01:33:44.892Z,9.51
2018-12-22T01:34:44.922Z,9.48
2018-12-22T01:35:44.875Z,9.54
2018-12-22T01:36:44.865Z,9.51
2018-12-22T01:37:44.851Z,9.57
2018-12-22T01:38:44.840Z,9.47
2018-12-22T01:39:44.831Z,9.57
2018-12-22T01:40:44.855Z,9.50
2018-12-22T01:41:44.808Z,9.54
2018-12-22T01:42:44.796Z,9.53
2018-12-22T01:43:44.785Z,9.51
2018-12-22T01:44:44.773Z,9.48
2018-12-22T01:45:44.764Z,9.53
2018-12-22T01:46:44.790Z,9.51
2018-12-22T01:47:44.746Z,9.54
2018-12-22T01:48:44.732Z,9.48
2018-12-22T01:49:44.721Z,9.39
2018-12-22T01:50:44.710Z,9.40
2018-12-22T01:51:44.699Z,9.36
2018-12-22T01:52:44.725Z,9.46
2018-12-22T01:53:44.678Z,9.43
2018-12-22T01:54:44.667Z,9.40
2018-12-22T01:55:44.657Z,9.33
2018-12-22T01:56:44.649Z,9.36
2018-12-22T01:57:44.635Z,9.29
2018-12-22T01:58:47.895Z,9.32
2018-12-22T01:59:44.615Z,9.29
2018-12-22T02:00:44.603Z,9.20
2018-12-22T02:01:44.593Z,9.31
2018-12-22T02:02:44.579Z,9.21
2018-12-22T02:03:44.571Z,9.18
2018-12-22T02:04:44.598Z,9.15
2018-12-22T02:05:44.550Z,9.15
2018-12-22T02:06:44.539Z,9.17
2018-12-22T02:07:44.534Z,9.13
2018-12-22T02:08:44.517Z,9.15
2018-12-22T02:09:44.517Z,9.08
2018-12-22T02:10:44.530Z,9.05
2018-12-22T02:11:44.485Z,9.02
2018-12-22T02:12:44.519Z,9.10
2018-12-22T02:13:44.462Z,9.10
2018-12-22T02:14:44.452Z,9.11
2018-12-22T02:15:44.444Z,9.10
2018-12-22T02:16:44.469Z,9.08
2018-12-22T02:17:44.425Z,9.04
2018-12-22T02:18:44.413Z,9.02
2018-12-22T02:19:44.399Z,9.04
2018-12-22T02:20:44.390Z,9.11
2018-12-22T02:21:44.378Z,9.05
2018-12-22T02:22:44.406Z,9.08
2018-12-22T02:23:44.356Z,9.11
2018-12-22T02:24:44.347Z,9.02
2018-12-22T02:25:44.333Z,9.13
2018-12-22T02:26:44.325Z,9.10
2018-12-22T02:27:44.317Z,9.05
2018-12-22T02:28:44.340Z,9.05
2018-12-22T02:29:44.291Z,9.11
2018-12-22T02:30:44.282Z,8.98
2018-12-22T02:31:44.286Z,8.91
2018-12-22T02:32:44.262Z,8.94
2018-12-22T02:33:44.248Z,8.96
2018-12-22T02:34:44.277Z,8.91
2018-12-22T02:35:44.231Z,8.98
2018-12-22T02:36:44.218Z,8.95
2018-12-22T02:37:44.206Z,9.01
2018-12-22T02:38:44.197Z,8.89
2018-12-22T02:39:44.187Z,8.87
2018-12-22T02:40:44.209Z,9.01
2018-12-22T02:41:44.164Z,8.80
2018-12-22T02:42:44.157Z,8.86
2018-12-22T02:43:44.140Z,8.87
2018-12-22T02:44:44.132Z,8.92
2018-12-22T02:45:44.121Z,8.81
2018-12-22T02:46:44.156Z,8.84
2018-12-22T02:47:44.096Z,8.87
2018-12-22T02:48:44.087Z,8.81
2018-12-22T02:49:44.075Z,8.80
2018-12-22T02:50:44.066Z,8.74
2018-12-22T02:51:44.055Z,8.81
2018-12-22T02:52:44.085Z,8.77
2018-12-22T02:53:44.033Z,8.77
2018-12-22T02:54:44.020Z,8.74
2018-12-22T02:55:44.010Z,8.79
2018-12-22T02:56:44.000Z,8.70
2018-12-22T02:57:43.989Z,8.77
2018-12-22T02:58:44.013Z,8.77
2018-12-22T02:59:43.971Z,8.79
2018-12-22T03:00:43.956Z,8.74
2018-12-22T03:01:43.945Z,8.74
2018-12-22T03:02:43.937Z,8.79
2018-12-22T03:03:43.924Z,8.62
2018-12-22T03:04:43.954Z,8.65
2018-12-22T03:05:43.902Z,8.77
2018-12-22T03:06:43.891Z,8.68
2018-12-22T03:07:43.889Z,8.62
2018-12-22T03:08:43.871Z,8.61
2018-12-22T03:09:43.861Z,8.63
2018-12-22T03:10:43.887Z,8.65
2018-12-22T03:11:43.838Z,8.63
2018-12-22T03:12:43.826Z,8.56
2018-12-22T03:13:43.816Z,8.59
2018-12-22T03:14:43.813Z,8.56
2018-12-22T03:15:43.799Z,8.56
2018-12-22T03:16:43.819Z,8.59
2018-12-22T03:17:43.772Z,8.50
2018-12-22T03:18:43.759Z,8.56
2018-12-22T03:19:43.754Z,8.58
2018-12-22T03:20:43.739Z,8.55
2018-12-22T03:21:43.734Z,8.61
2018-12-22T03:22:43.753Z,8.52
2018-12-22T03:23:43.709Z,8.58
2018-12-22T03:24:43.696Z,8.52
2018-12-22T03:25:43.686Z,8.41
2018-12-22T03:26:43.674Z,8.52
2018-12-22T03:27:43.662Z,8.44
2018-12-22T03:28:43.690Z,8.53
2018-12-22T03:29:43.642Z,8.40
2018-12-22T03:30:43.631Z,8.53
2018-12-22T03:31:43.629Z,8.48
2018-12-22T03:32:43.611Z,8.47
2018-12-22T03:33:43.597Z,8.53
2018-12-22T03:34:43.625Z,8.53
2018-12-22T03:35:43.574Z,8.45
2018-12-22T03:36:43.565Z,8.45
2018-12-22T03:37:43.556Z,8.41
2018-12-22T03:38:43.540Z,8.41
2018-12-22T03:39:43.532Z,8.45
2018-12-22T03:40:43.558Z,8.48
2018-12-22T03:41:43.510Z,8.45
2018-12-22T03:42:43.498Z,8.41
2018-12-22T03:43:43.487Z,8.43
2018-12-22T03:44:43.481Z,8.44
2018-12-22T03:45:43.465Z,8.40
2018-12-22T03:46:43.492Z,8.40
2018-12-22T03:47:43.448Z,8.40
2018-12-22T03:48:43.436Z,8.40
2018-12-22T03:49:43.425Z,8.43
2018-12-22T03:50:43.412Z,8.44
2018-12-22T03:51:43.399Z,8.37
2018-12-22T03:52:43.423Z,8.38
2018-12-22T03:53:43.376Z,8.38
2018-12-22T03:54:43.367Z,8.37
2018-12-22T03:55:43.357Z,8.33
2018-12-22T03:56:43.345Z,8.38
2018-12-22T03:57:43.336Z,8.36
2018-12-22T03:58:43.359Z,8.33
2018-12-22T03:59:43.312Z,8.36
2018-12-22T04:00:43.304Z,8.26
2018-12-22T04:01:43.297Z,8.29
2018-12-22T04:02:43.278Z,8.37
2018-12-22T04:03:43.270Z,8.37
2018-12-22T04:04:43.292Z,8.28
2018-12-22T04:05:43.247Z,8.26
2018-12-22T04:06:43.236Z,8.28
2018-12-22T04:07:43.232Z,8.33
2018-12-22T04:08:43.212Z,8.22
2018-12-22T04:09:43.204Z,8.26
2018-12-22T04:10:43.231Z,8.29
2018-12-22T04:11:43.180Z,8.29
2018-12-22T04:12:43.171Z,8.28
2018-12-22T04:13:43.157Z,8.26
2018-12-22T04:14:43.145Z,8.25
2018-12-22T04:15:43.134Z,8.28
2018-12-22T04:16:43.159Z,8.33
2018-12-22T04:17:43.114Z,8.26
2018-12-22T04:18:43.101Z,8.20
2018-12-22T04:19:43.097Z,8.28
2018-12-22T04:20:43.080Z,8.25
2018-12-22T04:21:43.070Z,8.22
2018-12-22T04:22:43.091Z,8.19
2018-12-22T04:23:43.046Z,8.23
2018-12-22T04:24:43.035Z,8.19
2018-12-22T04:25:43.024Z,8.22
2018-12-22T04:26:43.013Z,8.23
2018-12-22T04:27:43.008Z,8.15
2018-12-22T04:28:43.017Z,8.23
2018-12-22T04:29:42.981Z,8.22
2018-12-22T04:30:42.971Z,8.23
2018-12-22T04:31:42.961Z,8.37
2018-12-22T04:32:42.949Z,8.36
2018-12-22T04:33:42.962Z,8.22
2018-12-22T04:34:42.925Z,8.16
2018-12-22T04:35:42.915Z,8.29
2018-12-22T04:36:42.903Z,8.20
2018-12-22T04:37:42.890Z,8.18
2018-12-22T04:38:42.906Z,8.19
2018-12-22T04:39:42.873Z,8.20
2018-12-22T04:40:42.857Z,8.22
2018-12-22T04:41:42.848Z,8.26
2018-12-22T04:42:42.848Z,8.23
2018-12-22T04:43:42.852Z,8.25
2018-12-22T04:44:42.821Z,8.12
2018-12-22T04:45:42.804Z,8.20
2018-12-22T04:46:42.792Z,8.19
2018-12-22T04:47:42.793Z,8.20
2018-12-22T04:48:42.829Z,8.16
2018-12-22T04:49:42.761Z,8.11
2018-12-22T04:50:42.749Z,8.23
2018-12-22T04:51:42.737Z,8.20
2018-12-22T04:52:42.729Z,8.08
2018-12-22T04:53:42.751Z,8.07
2018-12-22T04:54:42.704Z,8.23
2018-12-22T04:55:42.695Z,8.19
2018-12-22T04:56:42.681Z,8.16
2018-12-22T04:57:42.673Z,8.19
2018-12-22T04:58:42.683Z,8.20
2018-12-22T04:59:43.175Z,8.15
2018-12-22T05:00:42.640Z,8.15
2018-12-22T05:01:42.634Z,8.16
2018-12-22T05:02:42.618Z,8.07
2018-12-22T05:03:42.631Z,8.07
2018-12-22T05:04:42.595Z,8.12
2018-12-22T05:05:42.584Z,8.15
2018-12-22T05:06:42.572Z,8.15
2018-12-22T05:07:42.565Z,8.10
2018-12-22T05:08:42.577Z,8.11
2018-12-22T05:09:42.542Z,8.15
2018-12-22T05:10:42.529Z,8.10
2018-12-22T05:11:42.549Z,8.18
2018-12-22T05:12:42.507Z,8.05
2018-12-22T05:13:42.522Z,8.04
2018-12-22T05:14:42.485Z,8.11
2018-12-22T05:15:42.475Z,8.16
2018-12-22T05:16:42.465Z,8.08
2018-12-22T05:17:42.455Z,7.98
2018-12-22T05:18:42.467Z,8.12
2018-12-22T05:19:42.437Z,8.02
2018-12-22T05:20:42.421Z,8.01
2018-12-22T05:21:42.410Z,8.08
2018-12-22T05:22:42.398Z,7.97
2018-12-22T05:23:42.414Z,8.07
2018-12-22T05:24:42.378Z,7.97
2018-12-22T05:25:42.367Z,8.04
2018-12-22T05:26:42.355Z,7.95
2018-12-22T05:27:42.344Z,8.00
2018-12-22T05:28:42.359Z,8.05
2018-12-22T05:29:42.323Z,8.11
2018-12-22T05:30:42.314Z,8.04
2018-12-22T05:31:42.302Z,7.98
2018-12-22T05:32:42.317Z,8.08
2018-12-22T05:33:42.282Z,8.08
2018-12-22T05:34:42.270Z,8.05
2018-12-22T05:35:42.259Z,8.07
2018-12-22T05:36:42.248Z,8.19
2018-12-22T05:37:42.264Z,8.10
2018-12-22T05:38:42.233Z,8.08
2018-12-22T05:39:42.218Z,8.04
2018-12-22T05:40:42.206Z,8.07
2018-12-22T05:41:42.197Z,8.08
2018-12-22T05:42:42.209Z,8.07
2018-12-22T05:43:42.175Z,8.04
2018-12-22T05:44:42.164Z,8.10
2018-12-22T05:45:42.168Z,8.00
2018-12-22T05:46:42.142Z,8.07
2018-12-22T05:47:42.157Z,8.00
2018-12-22T05:48:42.123Z,8.08
2018-12-22T05:49:42.111Z,8.08
2018-12-22T05:50:42.116Z,8.12
2018-12-22T05:51:42.089Z,8.04
2018-12-22T05:52:42.103Z,8.07
2018-12-22T05:53:42.078Z,8.00
2018-12-22T05:54:42.063Z,8.02
2018-12-22T05:55:42.045Z,8.00
2018-12-22T05:56:42.035Z,7.92
2018-12-22T05:57:42.050Z,7.97
2018-12-22T05:58:42.020Z,8.00
2018-12-22T05:59:42.006Z,8.01
2018-12-22T06:00:41.996Z,7.97
2018-12-22T06:01:41.985Z,7.97
2018-12-22T06:02:41.995Z,8.01
2018-12-22T06:03:41.963Z,8.02
2018-12-22T06:04:41.950Z,8.01
2018-12-22T06:05:41.942Z,7.92
2018-12-22T06:06:41.928Z,8.04
2018-12-22T06:07:41.943Z,7.95
2018-12-22T06:08:41.908Z,7.98
2018-12-22T06:09:41.898Z,7.98
2018-12-22T06:10:41.888Z,7.93
2018-12-22T06:11:41.882Z,7.98
2018-12-22T06:12:41.891Z,7.98
2018-12-22T06:13:41.853Z,7.97
2018-12-22T06:14:41.845Z,7.93
2018-12-22T06:15:41.833Z,7.97
2018-12-22T06:16:41.821Z,7.95
2018-12-22T06:17:41.917Z,7.97
2018-12-22T06:18:41.799Z,7.95
2018-12-22T06:19:41.789Z,7.95
2018-12-22T06:20:41.777Z,7.95
2018-12-22T06:21:41.769Z,8.01
2018-12-22T06:22:41.781Z,7.98
2018-12-22T06:23:41.884Z,7.87
2018-12-22T06:24:41.735Z,7.95
2018-12-22T06:25:41.726Z,7.97
2018-12-22T06:26:41.722Z,7.92
2018-12-22T06:27:41.732Z,7.92
2018-12-22T06:28:41.698Z,7.92
2018-12-22T06:29:41.685Z,7.90
2018-12-22T06:30:41.686Z,7.85
2018-12-22T06:31:41.663Z,7.89
2018-12-22T06:32:41.679Z,7.86
2018-12-22T06:33:41.649Z,7.80
2018-12-22T06:34:41.631Z,7.82
2018-12-22T06:35:41.619Z,7.87
2018-12-22T06:36:41.610Z,7.85
2018-12-22T06:37:41.630Z,7.87
2018-12-22T06:38:41.604Z,7.89
2018-12-22T06:39:41.584Z,7.80
2018-12-22T06:40:41.566Z,7.80
2018-12-22T06:41:41.558Z,7.80
2018-12-22T06:42:41.583Z,7.80
2018-12-22T06:43:41.575Z,7.82
2018-12-22T06:44:41.534Z,7.82
2018-12-22T06:45:41.519Z,7.83
2018-12-22T06:46:41.509Z,7.80
2018-12-22T06:47:41.499Z,7.77
2018-12-22T06:48:41.481Z,7.80
2018-12-22T06:49:41.506Z,7.80
2018-12-22T06:50:41.463Z,7.80
2018-12-22T06:51:41.449Z,7.80
2018-12-22T06:52:41.448Z,7.79
2018-12-22T06:53:42.105Z,7.77
2018-12-22T06:54:41.418Z,7.79
2018-12-22T06:55:41.432Z,7.77
2018-12-22T06:56:41.400Z,7.80
2018-12-22T06:57:41.387Z,7.87
2018-12-22T06:58:41.376Z,7.83
2018-12-22T06:59:41.366Z,7.82
2018-12-22T07:00:41.379Z,7.75
2018-12-22T07:01:41.344Z,7.85
2018-12-22T07:02:41.334Z,7.82
2018-12-22T07:03:41.323Z,7.82
2018-12-22T07:04:41.313Z,7.85
2018-12-22T07:05:41.338Z,7.79
2018-12-22T07:06:41.292Z,7.71
2018-12-22T07:07:41.280Z,7.72
2018-12-22T07:08:41.269Z,7.67
2018-12-22T07:09:41.261Z,7.72
2018-12-22T07:10:41.251Z,7.69
2018-12-22T07:11:41.276Z,7.74
2018-12-22T07:12:41.228Z,7.68
2018-12-22T07:13:41.217Z,7.68
2018-12-22T07:14:41.210Z,7.68
2018-12-22T07:15:41.196Z,7.67
2018-12-22T07:16:41.188Z,7.60
2018-12-22T07:17:41.210Z,7.61
2018-12-22T07:18:41.165Z,7.67
2018-12-22T07:19:41.165Z,7.61
2018-12-22T07:20:41.145Z,7.58
2018-12-22T07:21:41.134Z,7.61
2018-12-22T07:22:41.123Z,7.58
2018-12-22T07:23:41.151Z,7.43
2018-12-22T07:24:41.100Z,7.50
2018-12-22T07:25:41.090Z,7.46
2018-12-22T07:26:41.082Z,7.48
2018-12-22T07:27:41.071Z,7.52
2018-12-22T07:28:41.058Z,7.49
2018-12-22T07:29:41.085Z,7.50
2018-12-22T07:30:41.037Z,7.46
2018-12-22T07:31:41.028Z,7.48
2018-12-22T07:32:41.016Z,7.46
2018-12-22T07:33:41.009Z,7.52
2018-12-22T07:34:40.995Z,7.46
2018-12-22T07:35:41.011Z,7.45
2018-12-22T07:36:40.978Z,7.43
2018-12-22T07:37:40.967Z,7.43
2018-12-22T07:38:40.952Z,7.46
2018-12-22T07:39:40.944Z,7.49
2018-12-22T07:40:40.958Z,7.49
2018-12-22T07:41:40.922Z,7.58
2018-12-22T07:42:40.910Z,7.49
2018-12-22T07:43:40.907Z,7.50
2018-12-22T07:44:40.890Z,7.57
2018-12-22T07:45:40.916Z,7.50
2018-12-22T07:46:40.869Z,7.49
2018-12-22T07:47:40.857Z,7.48
2018-12-22T07:48:40.847Z,7.46
2018-12-22T07:49:40.836Z,7.46
2018-12-22T07:50:40.824Z,7.46
2018-12-22T07:51:40.851Z,7.52
2018-12-22T07:52:40.802Z,7.50
2018-12-22T07:53:40.792Z,7.50
2018-12-22T07:54:40.784Z,7.46
2018-12-22T07:55:40.775Z,7.52
2018-12-22T07:56:40.776Z,7.53
2018-12-22T07:57:40.789Z,7.53
2018-12-22T07:58:40.743Z,7.52
2018-12-22T07:59:40.734Z,7.46
2018-12-22T08:00:40.731Z,7.52
2018-12-22T08:01:40.719Z,7.48
2018-12-22T08:02:40.701Z,7.49
2018-12-22T08:03:40.729Z,7.43
2018-12-22T08:04:40.678Z,7.55
2018-12-22T08:05:40.673Z,7.42
2018-12-22T08:06:40.654Z,7.53
2018-12-22T08:07:40.644Z,7.53
2018-12-22T08:08:40.634Z,7.55
2018-12-22T08:09:40.659Z,7.48
2018-12-22T08:10:40.611Z,7.55
2018-12-22T08:11:40.601Z,7.42
2018-12-22T08:12:40.591Z,7.48
2018-12-22T08:13:40.583Z,7.43
2018-12-22T08:14:40.570Z,7.50
2018-12-22T08:15:40.586Z,7.52
2018-12-22T08:16:40.549Z,7.52
2018-12-22T08:17:40.546Z,7.52
2018-12-22T08:18:40.529Z,7.52
2018-12-22T08:19:40.524Z,7.55
2018-12-22T08:20:40.544Z,7.53
2018-12-22T08:21:40.497Z,7.52
2018-12-22T08:22:40.486Z,7.52
2018-12-22T08:23:40.475Z,7.42
2018-12-22T08:24:40.464Z,7.45
2018-12-22T08:25:40.515Z,7.52
2018-12-22T08:26:40.771Z,7.50
2018-12-22T08:27:43.379Z,7.61
2018-12-22T08:28:41.340Z,7.46
2018-12-22T08:29:40.487Z,7.50
2018-12-22T08:30:43.987Z,7.60
2018-12-22T08:31:43.260Z,7.50
2018-12-22T08:32:40.501Z,7.61
2018-12-22T08:33:40.373Z,7.58
2018-12-22T08:34:40.359Z,7.61
2018-12-22T08:35:40.352Z,7.63
2018-12-22T08:36:40.337Z,7.63
2018-12-22T08:37:40.366Z,7.67
2018-12-22T08:38:40.317Z,7.67
2018-12-22T08:39:40.316Z,7.61
2018-12-22T08:40:40.327Z,7.63
2018-12-22T08:41:40.286Z,7.57
2018-12-22T08:42:40.287Z,7.60
2018-12-22T08:43:40.304Z,7.61
2018-12-22T08:44:40.255Z,7.60
2018-12-22T08:45:40.242Z,7.64
2018-12-22T08:46:40.242Z,7.60
2018-12-22T08:47:40.227Z,7.63
2018-12-22T08:48:40.214Z,7.60
2018-12-22T08:49:40.239Z,7.63
2018-12-22T08:50:40.190Z,7.63
2018-12-22T08:51:40.190Z,7.60
2018-12-22T08:52:40.172Z,7.72
2018-12-22T08:53:40.161Z,7.58
2018-12-22T08:54:40.150Z,7.74
2018-12-22T08:55:40.164Z,7.64
2018-12-22T08:56:40.133Z,7.60
2018-12-22T08:57:40.116Z,7.61
2018-12-22T08:58:40.112Z,7.67
2018-12-22T08:59:40.098Z,7.64
2018-12-22T09:00:40.112Z,7.63
2018-12-22T09:01:40.078Z,7.57
2018-12-22T09:02:40.064Z,7.60
2018-12-22T09:03:40.052Z,7.71
2018-12-22T09:04:40.043Z,7.74
2018-12-22T09:05:40.072Z,7.64
2018-12-22T09:06:40.021Z,7.58
2018-12-22T09:07:40.011Z,7.74
2018-12-22T09:08:39.998Z,7.64
2018-12-22T09:09:39.989Z,7.71
2018-12-22T09:10:39.984Z,7.68
2018-12-22T09:11:40.071Z,7.72
2018-12-22T09:12:39.958Z,7.82
2018-12-22T09:13:39.946Z,7.83
2018-12-22T09:14:39.937Z,7.75
2018-12-22T09:15:39.925Z,7.68
2018-12-22T09:16:39.915Z,7.75
2018-12-22T09:17:39.940Z,7.72
2018-12-22T09:18:39.894Z,7.68
2018-12-22T09:19:39.884Z,7.74
2018-12-22T09:20:39.874Z,7.72
2018-12-22T09:21:39.864Z,7.61
2018-12-22T09:22:39.854Z,7.68
2018-12-22T09:23:39.878Z,7.74
2018-12-22T09:24:39.832Z,7.69
2018-12-22T09:25:39.822Z,7.58
2018-12-22T09:26:39.816Z,7.58
2018-12-22T09:27:39.800Z,7.60
2018-12-22T09:28:39.795Z,7.57
2018-12-22T09:29:39.817Z,7.75
2018-12-22T09:30:39.771Z,7.67
2018-12-22T09:31:39.758Z,7.63
2018-12-22T09:32:39.746Z,7.58
2018-12-22T09:33:39.737Z,7.48
2018-12-22T09:34:39.724Z,7.50
2018-12-22T09:35:39.742Z,7.60
2018-12-22T09:36:39.705Z,7.60
2018-12-22T09:37:39.697Z,7.58
2018-12-22T09:38:39.684Z,7.48
2018-12-22T09:39:39.673Z,7.45
2018-12-22T09:40:39.712Z,7.53
2018-12-22T09:41:39.653Z,7.53
2018-12-22T09:42:39.643Z,7.60
2018-12-22T09:43:39.642Z,7.63
2018-12-22T09:44:39.634Z,7.58
2018-12-22T09:45:39.647Z,7.64
2018-12-22T09:46:39.603Z,7.60
2018-12-22T09:47:39.593Z,7.61
2018-12-22T09:48:39.579Z,7.55
2018-12-22T09:49:39.573Z,7.68
2018-12-22T09:50:39.633Z,7.61
2018-12-22T09:51:39.588Z,7.60
2018-12-22T09:52:39.536Z,7.63
2018-12-22T09:53:39.527Z,7.68
2018-12-22T09:54:39.519Z,7.71
2018-12-22T09:55:39.511Z,7.71
2018-12-22T09:56:39.496Z,7.69
2018-12-22T09:57:39.521Z,7.67
2018-12-22T09:58:39.476Z,7.57
2018-12-22T09:59:39.462Z,7.58
2018-12-22T10:00:39.452Z,7.63
2018-12-22T10:01:39.442Z,7.48
2018-12-22T10:02:39.431Z,7.53
2018-12-22T10:03:39.456Z,7.45
2018-12-22T10:04:39.408Z,7.46
2018-12-22T10:05:39.399Z,7.52
2018-12-22T10:06:39.390Z,7.55
2018-12-22T10:07:39.378Z,7.53
2018-12-22T10:08:39.368Z,7.60
2018-12-22T10:09:39.393Z,7.53
2018-12-22T10:10:39.398Z,7.60
2018-12-22T10:11:39.337Z,7.61
2018-12-22T10:12:39.323Z,7.58
2018-12-22T10:13:39.314Z,7.61
2018-12-22T10:14:39.305Z,7.63
2018-12-22T10:15:39.318Z,7.67
2018-12-22T10:16:39.285Z,7.60
2018-12-22T10:17:39.271Z,7.63
2018-12-22T10:18:39.261Z,7.61
2018-12-22T10:19:39.250Z,7.67
2018-12-22T10:20:39.267Z,7.67
2018-12-22T10:21:39.230Z,7.64
2018-12-22T10:22:39.219Z,7.60
2018-12-22T10:23:39.210Z,7.60
2018-12-22T10:24:39.201Z,7.60
2018-12-22T10:25:39.286Z,7.49
2018-12-22T10:26:39.179Z,7.46
2018-12-22T10:27:39.167Z,7.43
2018-12-22T10:28:39.158Z,7.55
2018-12-22T10:29:39.148Z,7.49
2018-12-22T10:30:39.136Z,7.35
2018-12-22T10:31:39.166Z,7.39
2018-12-22T10:32:39.127Z,7.37
2018-12-22T10:33:39.104Z,7.32
2018-12-22T10:34:39.095Z,7.37
2018-12-22T10:35:39.087Z,7.30
2018-12-22T10:36:39.071Z,7.30
2018-12-22T10:37:39.102Z,7.31
2018-12-22T10:38:39.050Z,7.30
2018-12-22T10:39:39.041Z,7.28
2018-12-22T10:40:39.032Z,7.27
2018-12-22T10:41:39.020Z,7.32
2018-12-22T10:42:39.009Z,7.27
2018-12-22T10:43:39.035Z,7.27
2018-12-22T10:44:38.986Z,7.32
2018-12-22T10:45:38.976Z,7.27
2018-12-22T10:46:38.967Z,7.25
2018-12-22T10:47:38.960Z,7.20
2018-12-22T10:48:38.946Z,7.25
2018-12-22T10:49:38.973Z,7.20
2018-12-22T10:50:38.923Z,7.16
2018-12-22T10:51:38.912Z,7.17
2018-12-22T10:52:38.904Z,7.17
2018-12-22T10:53:38.893Z,7.12
2018-12-22T10:54:38.883Z,7.23
2018-12-22T10:55:38.895Z,7.23
2018-12-22T10:56:38.861Z,7.21
2018-12-22T10:57:38.851Z,7.25
2018-12-22T10:58:38.843Z,7.21
2018-12-22T10:59:38.830Z,7.25
2018-12-22T11:00:38.847Z,7.25
2018-12-22T11:01:38.811Z,7.25
2018-12-22T11:02:38.902Z,7.32
2018-12-22T11:03:38.786Z,7.30
2018-12-22T11:04:38.777Z,7.40
2018-12-22T11:05:38.790Z,7.53
2018-12-22T11:06:38.756Z,7.46
2018-12-22T11:07:38.746Z,7.60
2018-12-22T11:08:38.732Z,7.69
2018-12-22T11:09:38.724Z,7.89
2018-12-22T11:10:38.749Z,7.85
2018-12-22T11:11:38.705Z,7.90
2018-12-22T11:12:38.691Z,7.95
2018-12-22T11:13:38.682Z,7.95
2018-12-22T11:14:38.670Z,7.86
2018-12-22T11:15:38.659Z,7.79
2018-12-22T11:16:38.674Z,7.74
2018-12-22T11:17:38.637Z,7.63
2018-12-22T11:18:38.630Z,7.64
2018-12-22T11:19:38.619Z,7.61
2018-12-22T11:20:38.606Z,7.60
2018-12-22T11:21:38.709Z,7.45
2018-12-22T11:22:38.585Z,7.34
2018-12-22T11:23:38.573Z,7.42
2018-12-22T11:24:38.565Z,7.42
2018-12-22T11:25:38.554Z,7.42
2018-12-22T11:26:38.543Z,7.43
2018-12-22T11:27:38.569Z,7.35
2018-12-22T11:28:38.522Z,7.32
2018-12-22T11:29:38.513Z,7.32
2018-12-22T11:30:38.500Z,7.27
2018-12-22T11:31:38.491Z,7.25
2018-12-22T11:32:38.481Z,7.17
2018-12-22T11:33:38.504Z,7.25
2018-12-22T11:34:38.460Z,7.21
2018-12-22T11:35:38.451Z,7.25
2018-12-22T11:36:38.438Z,7.24
2018-12-22T11:37:38.428Z,7.24
2018-12-22T11:38:38.417Z,7.25
2018-12-22T11:39:38.441Z,7.27
2018-12-22T11:40:38.396Z,7.20
2018-12-22T11:41:38.389Z,7.25
2018-12-22T11:42:38.377Z,7.20
2018-12-22T11:43:38.363Z,7.23
2018-12-22T11:44:38.362Z,7.13
2018-12-22T11:45:38.367Z,7.15
2018-12-22T11:46:38.335Z,7.27
2018-12-22T11:47:38.324Z,7.28
2018-12-22T11:48:38.312Z,7.37
2018-12-22T11:49:38.300Z,7.28
2018-12-22T11:50:38.314Z,7.31
2018-12-22T11:51:38.278Z,7.30
2018-12-22T11:52:39.529Z,7.23
2018-12-22T11:53:38.260Z,7.24
2018-12-22T11:54:38.246Z,7.15
2018-12-22T11:55:38.259Z,7.20
2018-12-22T11:56:38.226Z,7.17
2018-12-22T11:57:38.215Z,7.24
2018-12-22T11:58:38.429Z,7.24
2018-12-22T11:59:38.199Z,7.32
2018-12-22T12:00:38.218Z,7.30
2018-12-22T12:01:43.512Z,7.32
2018-12-22T12:02:39.159Z,7.28
2018-12-22T12:03:38.149Z,7.23
2018-12-22T12:04:38.143Z,7.23
2018-12-22T12:05:38.131Z,7.21
2018-12-22T12:06:38.144Z,7.25
2018-12-22T12:07:38.107Z,7.21
2018-12-22T12:08:38.097Z,7.23
2018-12-22T12:09:38.086Z,7.20
2018-12-22T12:10:38.078Z,7.27
2018-12-22T12:11:38.103Z,7.24
2018-12-22T12:12:38.055Z,7.10
2018-12-22T12:13:38.045Z,7.20
2018-12-22T12:14:38.035Z,7.16
2018-12-22T12:15:38.024Z,7.20
2018-12-22T12:16:38.012Z,7.21
2018-12-22T12:17:38.040Z,7.23
2018-12-22T12:18:37.991Z,7.24
2018-12-22T12:19:38.010Z,7.24
2018-12-22T12:20:37.969Z,7.21
2018-12-22T12:21:37.957Z,7.23
2018-12-22T12:22:37.946Z,7.17
2018-12-22T12:23:37.973Z,7.09
2018-12-22T12:24:37.926Z,7.12
2018-12-22T12:25:37.914Z,7.13
2018-12-22T12:26:37.903Z,7.02
2018-12-22T12:27:37.893Z,7.05
2018-12-22T12:28:37.883Z,7.09
2018-12-22T12:29:37.908Z,6.98
2018-12-22T12:30:37.863Z,7.05
2018-12-22T12:31:37.852Z,7.12
2018-12-22T12:32:37.840Z,7.07
2018-12-22T12:33:37.829Z,7.07
2018-12-22T12:34:37.840Z,7.07
2018-12-22T12:35:37.832Z,7.10
2018-12-22T12:36:37.796Z,7.17
2018-12-22T12:37:37.786Z,7.07
2018-12-22T12:38:37.771Z,7.24
2018-12-22T12:39:37.762Z,7.21
2018-12-22T12:40:37.780Z,7.10
2018-12-22T12:41:37.741Z,7.13
2018-12-22T12:42:37.735Z,7.10
2018-12-22T12:43:37.718Z,7.15
2018-12-22T12:44:37.712Z,7.07
2018-12-22T12:45:37.723Z,7.17
2018-12-22T12:46:37.693Z,7.23
2018-12-22T12:47:37.677Z,7.13
2018-12-22T12:48:37.664Z,7.07
2018-12-22T12:49:37.656Z,7.02
2018-12-22T12:50:37.672Z,7.05
2018-12-22T12:51:37.635Z,6.95
2018-12-22T12:52:37.624Z,6.99
2018-12-22T12:53:37.613Z,6.98
2018-12-22T12:54:37.603Z,6.95
2018-12-22T12:55:37.632Z,7.09
2018-12-22T12:56:37.580Z,6.94
2018-12-22T12:57:37.571Z,6.95
2018-12-22T12:58:37.566Z,6.92
2018-12-22T12:59:37.549Z,7.05
2018-12-22T13:00:37.536Z,7.07
2018-12-22T13:01:37.561Z,7.06
2018-12-22T13:02:37.524Z,6.99
2018-12-22T13:03:37.504Z,6.98
2018-12-22T13:04:37.492Z,6.94
2018-12-22T13:05:37.485Z,6.94
2018-12-22T13:06:37.471Z,6.89
2018-12-22T13:07:37.485Z,6.92
2018-12-22T13:08:37.454Z,6.95
2018-12-22T13:09:37.471Z,6.85
2018-12-22T13:10:37.428Z,6.94
2018-12-22T13:11:37.420Z,6.97
2018-12-22T13:12:52.509Z,6.91
2018-12-22T13:13:37.509Z,6.80
2018-12-22T13:14:37.587Z,6.76
2018-12-22T13:15:37.442Z,6.77
2018-12-22T13:16:37.535Z,6.73
2018-12-22T13:17:37.421Z,6.77
2018-12-22T13:18:37.412Z,6.73